createdAt,value
2019-03-27T00:03:54.218Z,6.05
2019-03-27T00:09:02.504Z,5.84
2019-03-27T00:14:15.200Z,6.04
2019-03-27T00:19:12.835Z,6.10
2019-03-27T00:24:20.732Z,6.32
2019-03-27T00:29:28.809Z,6.03
2019-03-27T00:34:36.740Z,6.54
2019-03-27T00:39:44.689Z,6.55
2019-03-27T00:44:52.345Z,6.52
2019-03-27T00:50:00.261Z,6.54
2019-03-27T00:55:08.291Z,6.48
2019-03-27T01:00:16.336Z,5.72
2019-03-27T01:05:24.321Z,5.93
2019-03-27T01:10:32.100Z,5.94
2019-03-27T01:15:40.345Z,5.95
2019-03-27T01:20:47.442Z,6.00
2019-03-27T01:25:55.608Z,6.03
2019-03-27T01:31:03.568Z,6.03
2019-03-27T01:36:11.615Z,5.62
2019-03-27T01:41:19.627Z,5.70
2019-03-27T01:46:27.369Z,5.93
2019-03-27T01:51:35.240Z,5.47
2019-03-27T01:56:43.196Z,5.45
2019-03-27T02:01:51.096Z,5.92
2019-03-27T02:06:59.022Z,5.60
2019-03-27T02:12:06.976Z,5.75
2019-03-27T02:17:15.025Z,6.25
2019-03-27T02:22:23.192Z,6.28
2019-03-27T02:27:30.965Z,6.40
2019-03-27T02:32:38.678Z,6.18
2019-03-27T02:37:46.457Z,6.17
2019-03-27T02:42:54.265Z,6.32
2019-03-27T02:48:02.215Z,5.88
2019-03-27T02:53:10.144Z,6.39
2019-03-27T02:58:17.924Z,6.79
2019-03-27T03:03:25.893Z,6.88
2019-03-27T03:08:33.692Z,6.58
2019-03-27T03:13:41.489Z,6.26
2019-03-27T03:18:49.267Z,6.38
2019-03-27T03:23:57.313Z,5.70
2019-03-27T03:29:05.149Z,6.64
2019-03-27T03:34:12.835Z,6.88
2019-03-27T03:39:20.524Z,6.18
2019-03-27T03:44:28.787Z,5.99
2019-03-27T03:49:36.402Z,5.94
2019-03-27T03:54:44.390Z,6.55
2019-03-27T03:59:52.352Z,6.85
2019-03-27T04:05:00.606Z,6.97
2019-03-27T04:10:08.558Z,7.04
2019-03-27T04:15:16.485Z,7.67
2019-03-27T04:20:24.381Z,7.55
2019-03-27T04:26:00.476Z,8.18
2019-03-27T04:30:32.849Z,8.08
2019-03-27T04:35:40.750Z,7.72
2019-03-27T04:40:48.646Z,7.89
2019-03-27T04:45:56.845Z,7.68
2019-03-27T04:51:04.618Z,7.50
2019-03-27T04:56:12.332Z,8.18
2019-03-27T05:01:20.142Z,8.22
2019-03-27T05:06:27.823Z,8.58
2019-03-27T05:11:35.603Z,8.07
2019-03-27T05:16:43.195Z,8.29
2019-03-27T05:21:51.363Z,7.96
2019-03-27T05:26:59.017Z,7.77
2019-03-27T05:32:06.589Z,8.20
2019-03-27T05:37:14.300Z,14.24
2019-03-27T05:42:22.014Z,13.14
2019-03-27T05:47:29.680Z,13.32
2019-03-27T05:52:37.963Z,13.78
2019-03-27T05:57:45.499Z,10.29
2019-03-27T06:02:53.213Z,10.25
2019-03-27T06:08:00.778Z,10.30
2019-03-27T06:13:08.345Z,11.04
2019-03-27T06:18:15.885Z,10.44
2019-03-27T06:23:23.814Z,9.13
2019-03-27T06:28:31.377Z,11.36
2019-03-27T06:33:38.997Z,11.11
2019-03-27T06:38:46.543Z,10.89
2019-03-27T06:43:54.587Z,10.55
2019-03-27T06:49:02.242Z,11.22
2019-03-27T06:54:10.197Z,11.39
2019-03-27T06:59:17.858Z,11.29
2019-03-27T07:04:25.569Z,11.42
2019-03-27T07:09:33.503Z,11.50
2019-03-27T07:14:41.903Z,11.96
2019-03-27T07:19:50.838Z,12.40
2019-03-27T07:25:00.500Z,11.08
2019-03-27T07:30:10.348Z,10.93
2019-03-27T07:35:20.068Z,9.50
2019-03-27T07:40:29.790Z,9.83
2019-03-27T07:45:44.434Z,10.81
2019-03-27T07:50:44.209Z,10.42
2019-03-27T07:55:53.935Z,11.06
2019-03-27T08:01:03.653Z,17.56
2019-03-27T08:06:13.380Z,18.17
2019-03-27T08:11:23.394Z,17.33
2019-03-27T08:16:32.960Z,16.80
2019-03-27T08:21:42.680Z,16.24
2019-03-27T08:26:52.045Z,24.64
2019-03-27T08:32:00.749Z,24.19
2019-03-27T08:37:09.393Z,23.39
2019-03-27T08:42:17.799Z,23.18
2019-03-27T08:47:26.205Z,23.17
2019-03-27T08:52:34.611Z,22.95
2019-03-27T08:57:42.966Z,19.51
2019-03-27T09:02:51.058Z,15.20
2019-03-27T09:07:59.463Z,15.13
2019-03-27T09:13:07.390Z,18.64
2019-03-27T09:18:16.875Z,21.23
2019-03-27T09:23:23.239Z,23.27
2019-03-27T09:28:31.483Z,20.32
2019-03-27T09:33:39.649Z,20.88
2019-03-27T09:38:47.855Z,23.14
2019-03-27T09:43:56.022Z,24.03
2019-03-27T09:49:04.185Z,23.08
2019-03-27T09:54:12.468Z,23.03
2019-03-27T09:59:20.481Z,20.78
2019-03-27T10:04:28.687Z,20.08
2019-03-27T10:09:36.576Z,17.80
2019-03-27T10:14:47.308Z,16.31
2019-03-27T10:20:02.882Z,44.09
2019-03-27T10:25:00.378Z,12.24
2019-03-27T10:30:08.217Z,12.44
2019-03-27T10:35:16.446Z,15.48
2019-03-27T10:40:24.761Z,18.42
2019-03-27T10:45:32.899Z,16.96
2019-03-27T10:50:41.459Z,15.14
2019-03-27T10:55:49.499Z,10.92
2019-03-27T11:00:57.551Z,9.96
2019-03-27T11:06:05.577Z,11.89
2019-03-27T11:11:13.638Z,14.60
2019-03-27T11:16:21.566Z,15.93
2019-03-27T11:21:29.638Z,16.95
2019-03-27T11:26:37.639Z,12.13
2019-03-27T11:31:45.835Z,11.90
2019-03-27T11:37:00.331Z,10.97
2019-03-27T11:42:00.829Z,10.85
2019-03-27T11:47:06.032Z,10.86
2019-03-27T11:52:13.959Z,10.08
2019-03-27T11:57:21.865Z,9.19
2019-03-27T12:02:29.758Z,9.51
2019-03-27T12:07:37.713Z,9.71
2019-03-27T12:12:48.099Z,10.37
2019-03-27T12:17:53.414Z,10.39
2019-03-27T12:23:01.489Z,10.04
2019-03-27T12:28:09.535Z,9.90
2019-03-27T12:33:17.704Z,9.86
2019-03-27T12:38:25.992Z,9.99
2019-03-27T12:43:34.634Z,9.57
2019-03-27T12:48:43.281Z,10.41
2019-03-27T12:53:51.902Z,10.51
2019-03-27T12:59:00.453Z,10.37
2019-03-27T13:04:09.223Z,10.35
2019-03-27T13:09:18.107Z,10.55
2019-03-27T13:14:26.755Z,10.91
2019-03-27T13:19:35.403Z,10.65
2019-03-27T13:24:44.175Z,11.15
2019-03-27T13:29:52.939Z,11.50
2019-03-27T13:35:02.273Z,11.34
2019-03-27T13:40:10.567Z,12.14
2019-03-27T13:45:18.243Z,11.28
2019-03-27T13:50:26.077Z,10.66
2019-03-27T13:55:35.231Z,10.99
2019-03-27T14:00:40.975Z,10.83
2019-03-27T14:05:48.898Z,10.15
2019-03-27T14:10:56.710Z,9.80
2019-03-27T14:16:04.389Z,9.04
2019-03-27T14:21:12.077Z,8.89
2019-03-27T14:26:19.913Z,8.21
2019-03-27T14:31:27.543Z,8.63
2019-03-27T14:36:35.286Z,7.77
2019-03-27T14:41:43.638Z,7.73
2019-03-27T14:46:51.590Z,7.60
2019-03-27T14:52:08.098Z,7.52
2019-03-27T14:57:07.655Z,7.36
2019-03-27T15:02:16.094Z,8.21
2019-03-27T15:07:24.735Z,7.32
2019-03-27T15:12:33.514Z,8.28
2019-03-27T15:17:42.270Z,10.51
2019-03-27T15:22:50.656Z,10.44
2019-03-27T15:27:58.333Z,10.06
2019-03-27T15:33:06.919Z,10.38
2019-03-27T15:38:15.785Z,10.48
2019-03-27T15:43:28.956Z,10.70
2019-03-27T15:48:27.806Z,10.41
2019-03-27T15:53:36.079Z,10.54
2019-03-27T15:58:43.883Z,10.89
2019-03-27T16:03:51.782Z,10.81
2019-03-27T16:09:00.335Z,10.42
2019-03-27T16:14:08.953Z,11.15
2019-03-27T16:19:16.881Z,11.29
2019-03-27T16:24:25.557Z,11.59
2019-03-27T16:29:33.333Z,11.78
2019-03-27T16:34:41.656Z,12.01
2019-03-27T16:39:49.574Z,11.60
2019-03-27T16:44:57.357Z,11.74
2019-03-27T16:50:05.279Z,12.66
2019-03-27T16:55:13.446Z,12.03
2019-03-27T17:00:22.694Z,12.30
2019-03-27T17:05:31.460Z,11.97
2019-03-27T17:10:40.109Z,12.03
2019-03-27T17:15:48.874Z,12.18
2019-03-27T17:20:59.559Z,12.19
2019-03-27T17:25:57.333Z,12.45
2019-03-27T17:31:05.840Z,12.69
2019-03-27T17:36:14.579Z,13.44
2019-03-27T17:41:22.985Z,14.12
2019-03-27T17:46:33.913Z,16.23
2019-03-27T17:51:34.519Z,13.50
2019-03-27T17:56:35.488Z,13.54
2019-03-27T18:01:34.912Z,12.53
2019-03-27T18:06:43.476Z,12.75
2019-03-27T18:11:51.644Z,13.43
2019-03-27T18:17:00.356Z,13.41
2019-03-27T18:22:08.669Z,14.51
2019-03-27T18:27:18.125Z,14.67
2019-03-27T18:32:26.412Z,14.01
2019-03-27T18:37:36.066Z,12.75
2019-03-27T18:42:44.451Z,13.36
2019-03-27T18:47:52.712Z,14.12
2019-03-27T18:53:01.117Z,13.83
2019-03-27T18:58:08.837Z,13.72
2019-03-27T19:03:16.761Z,12.45
2019-03-27T19:08:26.754Z,12.90
2019-03-27T19:13:36.551Z,12.63
2019-03-27T19:18:45.943Z,12.39
2019-03-27T19:23:55.191Z,12.52
2019-03-27T19:29:07.897Z,12.59
2019-03-27T19:34:06.692Z,12.82
2019-03-27T19:39:16.059Z,12.79
2019-03-27T19:44:24.223Z,12.35
2019-03-27T19:49:33.479Z,12.72
2019-03-27T19:54:47.845Z,12.67
2019-03-27T19:59:46.021Z,13.38
2019-03-27T20:04:55.451Z,13.22
2019-03-27T20:10:03.554Z,14.65
2019-03-27T20:15:12.921Z,15.69
2019-03-27T20:20:20.793Z,16.75
2019-03-27T20:25:29.677Z,17.08
2019-03-27T20:30:37.511Z,16.91
2019-03-27T20:35:45.323Z,17.63
2019-03-27T20:40:54.298Z,17.15
2019-03-27T20:46:03.070Z,17.95
2019-03-27T20:51:11.375Z,17.71
2019-03-27T20:56:22.770Z,17.50
2019-03-27T21:01:20.845Z,17.80
2019-03-27T21:06:31.530Z,17.59
2019-03-27T21:11:31.098Z,17.80
2019-03-27T21:16:39.608Z,17.63
2019-03-27T21:21:49.429Z,17.72
2019-03-27T21:27:02.635Z,18.02
2019-03-27T21:32:00.483Z,17.94
2019-03-27T21:37:09.879Z,19.12
2019-03-27T21:42:19.365Z,19.62
2019-03-27T21:47:31.943Z,19.13
2019-03-27T21:52:31.708Z,20.10
2019-03-27T21:57:42.397Z,20.52
2019-03-27T22:02:41.255Z,19.93
2019-03-27T22:07:49.248Z,20.14
2019-03-27T22:12:57.054Z,20.29
2019-03-27T22:18:04.980Z,21.42
2019-03-27T22:23:13.265Z,21.47
2019-03-27T22:28:20.861Z,21.56
2019-03-27T22:33:29.425Z,21.40
2019-03-27T22:38:37.075Z,21.10
2019-03-27T22:43:44.788Z,21.51
2019-03-27T22:48:52.474Z,21.61
2019-03-27T22:54:00.464Z,21.24
2019-03-27T22:59:10.793Z,20.39
2019-03-27T23:04:08.308Z,19.50
2019-03-27T23:09:16.148Z,19.87
2019-03-27T23:14:23.676Z,19.75
2019-03-27T23:19:31.273Z,20.33
2019-03-27T23:24:38.783Z,18.72
2019-03-27T23:29:46.645Z,19.49
2019-03-27T23:34:54.395Z,20.17
2019-03-27T23:40:02.130Z,19.90
2019-03-27T23:45:58.881Z,20.63
2019-03-27T23:51:05.846Z,20.16
2019-03-27T23:55:24.090Z,20.58
